sensor_id;sensor_type;location;lat;lon;timestamp;P1;durP1;ratioP1;P2;durP2;ratioP2
52734;SDS011;38631;47.572;10.704;2023-05-10T00:01:57;0.50;;;0.30;;
52734;SDS011;38631;47.572;10.704;2023-05-10T00:04:22;1.27;;;0.20;;
52734;SDS011;38631;47.572;10.704;2023-05-10T00:06:52;0.93;;;0.20;;
52734;SDS011;38631;47.572;10.704;2023-05-10T00:09:17;1.85;;;0.20;;
52734;SDS011;38631;47.572;10.704;2023-05-10T00:11:43;2.40;;;0.20;;
52734;SDS011;38631;47.572;10.704;2023-05-10T00:14:08;0.70;;;0.30;;
52734;SDS011;38631;47.572;10.704;2023-05-10T00:16:33;2.05;;;0.30;;
52734;SDS011;38631;47.572;10.704;2023-05-10T00:18:59;0.30;;;0.20;;
52734;SDS011;38631;47.572;10.704;2023-05-10T00:21:24;0.30;;;0.10;;
52734;SDS011;38631;47.572;10.704;2023-05-10T00:23:49;0.47;;;0.10;;
52734;SDS011;38631;47.572;10.704;2023-05-10T00:26:15;0.40;;;0.20;;
52734;SDS011;38631;47.572;10.704;2023-05-10T00:28:41;0.10;;;0.10;;
52734;SDS011;38631;47.572;10.704;2023-05-10T00:31:06;0.17;;;0.10;;
52734;SDS011;38631;47.572;10.704;2023-05-10T00:33:32;0.50;;;0.20;;
52734;SDS011;38631;47.572;10.704;2023-05-10T00:35:57;0.45;;;0.13;;
52734;SDS011;38631;47.572;10.704;2023-05-10T00:38:23;0.25;;;0.10;;
52734;SDS011;38631;47.572;10.704;2023-05-10T00:40:48;0.10;;;0.10;;
52734;SDS011;38631;47.572;10.704;2023-05-10T00:43:13;0.15;;;0.10;;
52734;SDS011;38631;47.572;10.704;2023-05-10T00:45:39;0.08;;;0.08;;
52734;SDS011;38631;47.572;10.704;2023-05-10T00:48:06;1.60;;;0.10;;
52734;SDS011;38631;47.572;10.704;2023-05-10T00:50:31;0.32;;;0.20;;
52734;SDS011;38631;47.572;10.704;2023-05-10T00:52:57;0.15;;;0.10;;
52734;SDS011;38631;47.572;10.704;2023-05-10T00:55:24;1.10;;;0.10;;
52734;SDS011;38631;47.572;10.704;2023-05-10T00:57:49;0.20;;;0.10;;
52734;SDS011;38631;47.572;10.704;2023-05-10T01:00:15;0.38;;;0.10;;
52734;SDS011;38631;47.572;10.704;2023-05-10T01:02:46;0.20;;;0.10;;
52734;SDS011;38631;47.572;10.704;2023-05-10T01:05:12;1.02;;;0.10;;
52734;SDS011;38631;47.572;10.704;2023-05-10T01:07:38;0.10;;;0.10;;
52734;SDS011;38631;47.572;10.704;2023-05-10T01:10:05;0.00;;;0.00;;
52734;SDS011;38631;47.572;10.704;2023-05-10T01:12:32;0.28;;;0.20;;
52734;SDS011;38631;47.572;10.704;2023-05-10T01:15:00;0.30;;;0.25;;
52734;SDS011;38631;47.572;10.704;2023-05-10T01:17:27;0.28;;;0.15;;
52734;SDS011;38631;47.572;10.704;2023-05-10T01:19:52;0.10;;;0.10;;
52734;SDS011;38631;47.572;10.704;2023-05-10T01:25:17;0.13;;;0.10;;
52734;SDS011;38631;47.572;10.704;2023-05-10T01:28:13;0.10;;;0.10;;
52734;SDS011;38631;47.572;10.704;2023-05-10T01:34:19;0.10;;;0.10;;
52734;SDS011;38631;47.572;10.704;2023-05-10T01:41:51;0.30;;;0.10;;
52734;SDS011;38631;47.572;10.704;2023-05-10T01:44:29;0.22;;;0.10;;
52734;SDS011;38631;47.572;10.704;2023-05-10T01:47:05;0.17;;;0.10;;
52734;SDS011;38631;47.572;10.704;2023-05-10T01:49:37;0.20;;;0.10;;
52734;SDS011;38631;47.572;10.704;2023-05-10T01:52:08;0.10;;;0.10;;
52734;SDS011;38631;47.572;10.704;2023-05-10T01:54:38;2.28;;;0.20;;
52734;SDS011;38631;47.572;10.704;2023-05-10T01:57:09;0.77;;;0.20;;
52734;SDS011;38631;47.572;10.704;2023-05-10T01:59:39;0.85;;;0.20;;
52734;SDS011;38631;47.572;10.704;2023-05-10T02:02:07;0.30;;;0.15;;
52734;SDS011;38631;47.572;10.704;2023-05-10T02:04:36;0.10;;;0.10;;
52734;SDS011;38631;47.572;10.704;2023-05-10T02:07:04;0.40;;;0.10;;
52734;SDS011;38631;47.572;10.704;2023-05-10T02:09:32;0.22;;;0.13;;
52734;SDS011;38631;47.572;10.704;2023-05-10T02:11:58;0.40;;;0.20;;
52734;SDS011;38631;47.572;10.704;2023-05-10T02:14:27;0.57;;;0.20;;
52734;SDS011;38631;47.572;10.704;2023-05-10T02:16:54;0.57;;;0.40;;
52734;SDS011;38631;47.572;10.704;2023-05-10T02:19:21;0.40;;;0.30;;
52734;SDS011;38631;47.572;10.704;2023-05-10T02:21:48;0.50;;;0.30;;
52734;SDS011;38631;47.572;10.704;2023-05-10T02:24:16;0.50;;;0.30;;
52734;SDS011;38631;47.572;10.704;2023-05-10T02:26:43;0.65;;;0.30;;
52734;SDS011;38631;47.572;10.704;2023-05-10T02:29:10;1.20;;;0.35;;
52734;SDS011;38631;47.572;10.704;2023-05-10T02:31:37;1.35;;;0.40;;
52734;SDS011;38631;47.572;10.704;2023-05-10T02:34:04;0.43;;;0.30;;
52734;SDS011;38631;47.572;10.704;2023-05-10T02:36:32;0.57;;;0.40;;
52734;SDS011;38631;47.572;10.704;2023-05-10T02:38:58;0.47;;;0.32;;
52734;SDS011;38631;47.572;10.704;2023-05-10T02:41:27;0.50;;;0.30;;
52734;SDS011;38631;47.572;10.704;2023-05-10T02:43:56;0.50;;;0.20;;
52734;SDS011;38631;47.572;10.704;2023-05-10T02:46:24;0.20;;;0.20;;
52734;SDS011;38631;47.572;10.704;2023-05-10T02:48:50;0.43;;;0.20;;
52734;SDS011;38631;47.572;10.704;2023-05-10T02:51:16;1.05;;;0.20;;
52734;SDS011;38631;47.572;10.704;2023-05-10T02:53:44;0.40;;;0.22;;
52734;SDS011;38631;47.572;10.704;2023-05-10T02:56:12;0.22;;;0.20;;
52734;SDS011;38631;47.572;10.704;2023-05-10T02:58:42;0.93;;;0.20;;
52734;SDS011;38631;47.572;10.704;2023-05-10T03:01:07;0.30;;;0.10;;
52734;SDS011;38631;47.572;10.704;2023-05-10T03:03:33;0.60;;;0.30;;
52734;SDS011;38631;47.572;10.704;2023-05-10T03:05:59;1.08;;;0.30;;
52734;SDS011;38631;47.572;10.704;2023-05-10T03:08:24;0.20;;;0.10;;
52734;SDS011;38631;47.572;10.704;2023-05-10T03:11:16;0.55;;;0.17;;
52734;SDS011;38631;47.572;10.704;2023-05-10T03:14:10;0.40;;;0.20;;
52734;SDS011;38631;47.572;10.704;2023-05-10T03:16:46;1.42;;;0.10;;
52734;SDS011;38631;47.572;10.704;2023-05-10T03:19:22;0.13;;;0.10;;
52734;SDS011;38631;47.572;10.704;2023-05-10T03:21:52;0.20;;;0.10;;
52734;SDS011;38631;47.572;10.704;2023-05-10T03:24:20;0.22;;;0.10;;
52734;SDS011;38631;47.572;10.704;2023-05-10T03:26:48;1.02;;;0.00;;
52734;SDS011;38631;47.572;10.704;2023-05-10T03:29:15;0.20;;;0.10;;
52734;SDS011;38631;47.572;10.704;2023-05-10T03:31:41;0.00;;;0.00;;
52734;SDS011;38631;47.572;10.704;2023-05-10T03:34:06;0.68;;;0.10;;
52734;SDS011;38631;47.572;10.704;2023-05-10T03:36:32;0.08;;;0.00;;
52734;SDS011;38631;47.572;10.704;2023-05-10T03:38:58;0.55;;;0.10;;
52734;SDS011;38631;47.572;10.704;2023-05-10T03:41:23;0.10;;;0.00;;
52734;SDS011;38631;47.572;10.704;2023-05-10T03:43:50;0.30;;;0.10;;
52734;SDS011;38631;47.572;10.704;2023-05-10T03:46:15;0.00;;;0.00;;
52734;SDS011;38631;47.572;10.704;2023-05-10T03:48:40;0.13;;;0.03;;
52734;SDS011;38631;47.572;10.704;2023-05-10T03:51:06;0.00;;;0.00;;
52734;SDS011;38631;47.572;10.704;2023-05-10T03:53:31;0.05;;;0.05;;
52734;SDS011;38631;47.572;10.704;2023-05-10T03:55:56;0.00;;;0.00;;
52734;SDS011;38631;47.572;10.704;2023-05-10T03:58:22;0.28;;;0.10;;
52734;SDS011;38631;47.572;10.704;2023-05-10T04:00:47;0.22;;;0.10;;
52734;SDS011;38631;47.572;10.704;2023-05-10T04:03:13;0.30;;;0.10;;
52734;SDS011;38631;47.572;10.704;2023-05-10T04:05:38;0.20;;;0.10;;
52734;SDS011;38631;47.572;10.704;2023-05-10T04:08:04;0.10;;;0.00;;
52734;SDS011;38631;47.572;10.704;2023-05-10T04:10:30;0.05;;;0.05;;
52734;SDS011;38631;47.572;10.704;2023-05-10T04:12:55;0.22;;;0.10;;
52734;SDS011;38631;47.572;10.704;2023-05-10T04:15:21;0.45;;;0.13;;
52734;SDS011;38631;47.572;10.704;2023-05-10T04:17:46;0.10;;;0.10;;
52734;SDS011;38631;47.572;10.704;2023-05-10T04:20:12;0.13;;;0.10;;
52734;SDS011;38631;47.572;10.704;2023-05-10T04:22:37;0.20;;;0.10;;
52734;SDS011;38631;47.572;10.704;2023-05-10T04:25:03;0.30;;;0.10;;
52734;SDS011;38631;47.572;10.704;2023-05-10T04:27:29;0.17;;;0.17;;
52734;SDS011;38631;47.572;10.704;2023-05-10T04:29:55;0.20;;;0.15;;
52734;SDS011;38631;47.572;10.704;2023-05-10T04:32:20;0.25;;;0.17;;
52734;SDS011;38631;47.572;10.704;2023-05-10T04:34:46;0.13;;;0.10;;
52734;SDS011;38631;47.572;10.704;2023-05-10T04:37:12;0.52;;;0.13;;
52734;SDS011;38631;47.572;10.704;2023-05-10T04:39:37;0.30;;;0.20;;
52734;SDS011;38631;47.572;10.704;2023-05-10T04:42:03;0.20;;;0.15;;
52734;SDS011;38631;47.572;10.704;2023-05-10T04:44:30;0.20;;;0.17;;
52734;SDS011;38631;47.572;10.704;2023-05-10T04:46:56;0.52;;;0.20;;
52734;SDS011;38631;47.572;10.704;2023-05-10T04:49:21;0.30;;;0.20;;
52734;SDS011;38631;47.572;10.704;2023-05-10T04:51:47;0.40;;;0.20;;
52734;SDS011;38631;47.572;10.704;2023-05-10T04:54:12;0.57;;;0.25;;
52734;SDS011;38631;47.572;10.704;2023-05-10T04:56:38;0.30;;;0.20;;
52734;SDS011;38631;47.572;10.704;2023-05-10T04:59:03;0.22;;;0.20;;
52734;SDS011;38631;47.572;10.704;2023-05-10T05:01:29;0.73;;;0.20;;
52734;SDS011;38631;47.572;10.704;2023-05-10T05:03:55;0.28;;;0.20;;
52734;SDS011;38631;47.572;10.704;2023-05-10T05:06:20;0.75;;;0.28;;
52734;SDS011;38631;47.572;10.704;2023-05-10T05:08:46;0.00;;;0.00;;
52734;SDS011;38631;47.572;10.704;2023-05-10T05:11:11;0.10;;;0.10;;
52734;SDS011;38631;47.572;10.704;2023-05-10T05:13:37;0.40;;;0.10;;
52734;SDS011;38631;47.572;10.704;2023-05-10T05:16:02;0.00;;;0.00;;
52734;SDS011;38631;47.572;10.704;2023-05-10T05:18:28;0.35;;;0.00;;
52734;SDS011;38631;47.572;10.704;2023-05-10T05:20:53;0.00;;;0.00;;
52734;SDS011;38631;47.572;10.704;2023-05-10T05:23:19;0.00;;;0.00;;
52734;SDS011;38631;47.572;10.704;2023-05-10T05:25:46;0.30;;;0.22;;
52734;SDS011;38631;47.572;10.704;2023-05-10T05:28:11;0.10;;;0.10;;
52734;SDS011;38631;47.572;10.704;2023-05-10T05:30:37;0.13;;;0.03;;
52734;SDS011;38631;47.572;10.704;2023-05-10T05:33:02;0.30;;;0.10;;
52734;SDS011;38631;47.572;10.704;2023-05-10T05:35:28;0.00;;;0.00;;
52734;SDS011;38631;47.572;10.704;2023-05-10T05:37:53;0.03;;;0.00;;
52734;SDS011;38631;47.572;10.704;2023-05-10T05:40:19;0.10;;;0.10;;
52734;SDS011;38631;47.572;10.704;2023-05-10T05:42:45;0.10;;;0.00;;
52734;SDS011;38631;47.572;10.704;2023-05-10T05:45:10;0.10;;;0.10;;
52734;SDS011;38631;47.572;10.704;2023-05-10T05:47:38;0.10;;;0.10;;
52734;SDS011;38631;47.572;10.704;2023-05-10T05:50:04;0.10;;;0.05;;
52734;SDS011;38631;47.572;10.704;2023-05-10T05:52:30;0.05;;;0.05;;
52734;SDS011;38631;47.572;10.704;2023-05-10T05:54:56;0.30;;;0.10;;
52734;SDS011;38631;47.572;10.704;2023-05-10T05:57:21;1.75;;;0.10;;
52734;SDS011;38631;47.572;10.704;2023-05-10T05:59:47;0.22;;;0.08;;
52734;SDS011;38631;47.572;10.704;2023-05-10T06:02:13;0.10;;;0.10;;
52734;SDS011;38631;47.572;10.704;2023-05-10T06:04:38;0.13;;;0.00;;
52734;SDS011;38631;47.572;10.704;2023-05-10T06:07:04;0.00;;;0.00;;
52734;SDS011;38631;47.572;10.704;2023-05-10T06:09:29;0.03;;;0.03;;
52734;SDS011;38631;47.572;10.704;2023-05-10T06:11:55;0.10;;;0.10;;
52734;SDS011;38631;47.572;10.704;2023-05-10T06:14:21;0.40;;;0.20;;
52734;SDS011;38631;47.572;10.704;2023-05-10T06:16:46;0.13;;;0.10;;
52734;SDS011;38631;47.572;10.704;2023-05-10T06:19:12;0.95;;;0.25;;
52734;SDS011;38631;47.572;10.704;2023-05-10T06:21:37;0.73;;;0.40;;
52734;SDS011;38631;47.572;10.704;2023-05-10T06:24:03;0.82;;;0.40;;
52734;SDS011;38631;47.572;10.704;2023-05-10T06:26:28;0.50;;;0.30;;
52734;SDS011;38631;47.572;10.704;2023-05-10T06:28:54;0.22;;;0.20;;
52734;SDS011;38631;47.572;10.704;2023-05-10T06:31:19;0.40;;;0.30;;
52734;SDS011;38631;47.572;10.704;2023-05-10T06:33:44;1.60;;;0.55;;
52734;SDS011;38631;47.572;10.704;2023-05-10T06:36:10;0.47;;;0.20;;
52734;SDS011;38631;47.572;10.704;2023-05-10T06:38:36;0.20;;;0.10;;
52734;SDS011;38631;47.572;10.704;2023-05-10T06:41:01;0.20;;;0.10;;
52734;SDS011;38631;47.572;10.704;2023-05-10T06:43:26;1.38;;;0.13;;
52734;SDS011;38631;47.572;10.704;2023-05-10T06:45:53;0.55;;;0.13;;
52734;SDS011;38631;47.572;10.704;2023-05-10T06:48:18;0.30;;;0.20;;
52734;SDS011;38631;47.572;10.704;2023-05-10T06:50:44;0.80;;;0.40;;
52734;SDS011;38631;47.572;10.704;2023-05-10T06:53:10;0.10;;;0.10;;
52734;SDS011;38631;47.572;10.704;2023-05-10T06:55:37;0.35;;;0.17;;
52734;SDS011;38631;47.572;10.704;2023-05-10T06:58:02;1.42;;;0.52;;
52734;SDS011;38631;47.572;10.704;2023-05-10T07:00:28;0.40;;;0.20;;
52734;SDS011;38631;47.572;10.704;2023-05-10T07:02:53;0.93;;;0.30;;
52734;SDS011;38631;47.572;10.704;2023-05-10T07:05:18;2.60;;;0.57;;
52734;SDS011;38631;47.572;10.704;2023-05-10T07:07:44;0.57;;;0.28;;
52734;SDS011;38631;47.572;10.704;2023-05-10T07:10:10;0.30;;;0.20;;
52734;SDS011;38631;47.572;10.704;2023-05-10T07:12:35;0.40;;;0.10;;
52734;SDS011;38631;47.572;10.704;2023-05-10T07:15:00;0.35;;;0.10;;
52734;SDS011;38631;47.572;10.704;2023-05-10T07:17:26;0.40;;;0.20;;
52734;SDS011;38631;47.572;10.704;2023-05-10T07:19:51;0.28;;;0.20;;
52734;SDS011;38631;47.572;10.704;2023-05-10T07:22:17;0.22;;;0.22;;
52734;SDS011;38631;47.572;10.704;2023-05-10T07:24:42;0.20;;;0.10;;
52734;SDS011;38631;47.572;10.704;2023-05-10T07:27:08;0.40;;;0.40;;
52734;SDS011;38631;47.572;10.704;2023-05-10T07:29:34;0.10;;;0.10;;
52734;SDS011;38631;47.572;10.704;2023-05-10T07:31:59;0.40;;;0.30;;
52734;SDS011;38631;47.572;10.704;2023-05-10T07:34:25;0.95;;;0.30;;
52734;SDS011;38631;47.572;10.704;2023-05-10T07:36:50;0.50;;;0.40;;
52734;SDS011;38631;47.572;10.704;2023-05-10T07:39:16;0.47;;;0.20;;
52734;SDS011;38631;47.572;10.704;2023-05-10T07:41:41;0.20;;;0.10;;
52734;SDS011;38631;47.572;10.704;2023-05-10T07:44:07;0.10;;;0.10;;
52734;SDS011;38631;47.572;10.704;2023-05-10T07:46:32;0.22;;;0.10;;
52734;SDS011;38631;47.572;10.704;2023-05-10T07:48:58;0.10;;;0.10;;
52734;SDS011;38631;47.572;10.704;2023-05-10T07:51:23;0.20;;;0.10;;
52734;SDS011;38631;47.572;10.704;2023-05-10T07:53:49;0.17;;;0.08;;
52734;SDS011;38631;47.572;10.704;2023-05-10T07:56:27;0.22;;;0.10;;
52734;SDS011;38631;47.572;10.704;2023-05-10T07:58:57;0.35;;;0.15;;
52734;SDS011;38631;47.572;10.704;2023-05-10T08:03:55;0.32;;;0.10;;
52734;SDS011;38631;47.572;10.704;2023-05-10T08:06:20;0.10;;;0.10;;
52734;SDS011;38631;47.572;10.704;2023-05-10T08:08:46;0.20;;;0.10;;
52734;SDS011;38631;47.572;10.704;2023-05-10T08:11:15;0.35;;;0.10;;
52734;SDS011;38631;47.572;10.704;2023-05-10T08:13:46;0.03;;;0.03;;
52734;SDS011;38631;47.572;10.704;2023-05-10T08:16:12;0.10;;;0.10;;
52734;SDS011;38631;47.572;10.704;2023-05-10T08:18:38;0.95;;;0.20;;
52734;SDS011;38631;47.572;10.704;2023-05-10T08:21:03;0.22;;;0.17;;
52734;SDS011;38631;47.572;10.704;2023-05-10T08:23:29;0.10;;;0.10;;
52734;SDS011;38631;47.572;10.704;2023-05-10T08:25:54;0.20;;;0.10;;
52734;SDS011;38631;47.572;10.704;2023-05-10T08:28:20;0.38;;;0.17;;
52734;SDS011;38631;47.572;10.704;2023-05-10T08:30:45;0.22;;;0.10;;
52734;SDS011;38631;47.572;10.704;2023-05-10T08:33:10;0.10;;;0.10;;
52734;SDS011;38631;47.572;10.704;2023-05-10T08:35:36;0.20;;;0.10;;
52734;SDS011;38631;47.572;10.704;2023-05-10T08:38:01;0.20;;;0.10;;
52734;SDS011;38631;47.572;10.704;2023-05-10T08:40:27;0.22;;;0.20;;
52734;SDS011;38631;47.572;10.704;2023-05-10T08:42:57;0.40;;;0.20;;
52734;SDS011;38631;47.572;10.704;2023-05-10T08:45:30;0.47;;;0.30;;
52734;SDS011;38631;47.572;10.704;2023-05-10T08:47:57;0.38;;;0.20;;
52734;SDS011;38631;47.572;10.704;2023-05-10T08:50:26;0.40;;;0.20;;
52734;SDS011;38631;47.572;10.704;2023-05-10T08:52:51;0.30;;;0.20;;
52734;SDS011;38631;47.572;10.704;2023-05-10T08:55:20;0.30;;;0.20;;
52734;SDS011;38631;47.572;10.704;2023-05-10T08:57:46;1.48;;;0.20;;
52734;SDS011;38631;47.572;10.704;2023-05-10T09:00:12;0.20;;;0.13;;
52734;SDS011;38631;47.572;10.704;2023-05-10T09:02:38;0.40;;;0.25;;
52734;SDS011;38631;47.572;10.704;2023-05-10T09:05:04;1.65;;;0.57;;
52734;SDS011;38631;47.572;10.704;2023-05-10T09:07:30;0.75;;;0.20;;
52734;SDS011;38631;47.572;10.704;2023-05-10T09:09:56;0.93;;;0.30;;
52734;SDS011;38631;47.572;10.704;2023-05-10T09:12:22;1.25;;;0.30;;
52734;SDS011;38631;47.572;10.704;2023-05-10T09:14:48;0.60;;;0.38;;
52734;SDS011;38631;47.572;10.704;2023-05-10T09:17:17;0.52;;;0.32;;
52734;SDS011;38631;47.572;10.704;2023-05-10T09:19:42;1.75;;;0.20;;
52734;SDS011;38631;47.572;10.704;2023-05-10T09:22:09;0.57;;;0.30;;
52734;SDS011;38631;47.572;10.704;2023-05-10T09:24:36;0.45;;;0.30;;
52734;SDS011;38631;47.572;10.704;2023-05-10T09:27:07;0.70;;;0.30;;
52734;SDS011;38631;47.572;10.704;2023-05-10T09:29:42;0.30;;;0.20;;
52734;SDS011;38631;47.572;10.704;2023-05-10T09:32:08;0.63;;;0.22;;
52734;SDS011;38631;47.572;10.704;2023-05-10T09:34:33;0.35;;;0.30;;
52734;SDS011;38631;47.572;10.704;2023-05-10T09:37:00;1.27;;;0.30;;
52734;SDS011;38631;47.572;10.704;2023-05-10T09:41:57;0.40;;;0.30;;
52734;SDS011;38631;47.572;10.704;2023-05-10T09:44:25;0.47;;;0.40;;
52734;SDS011;38631;47.572;10.704;2023-05-10T09:46:51;1.15;;;0.40;;
52734;SDS011;38631;47.572;10.704;2023-05-10T09:49:18;0.57;;;0.30;;
52734;SDS011;38631;47.572;10.704;2023-05-10T09:51:44;0.82;;;0.40;;
52734;SDS011;38631;47.572;10.704;2023-05-10T09:54:14;0.68;;;0.40;;
52734;SDS011;38631;47.572;10.704;2023-05-10T09:56:41;0.63;;;0.30;;
52734;SDS011;38631;47.572;10.704;2023-05-10T09:59:08;0.75;;;0.25;;
52734;SDS011;38631;47.572;10.704;2023-05-10T10:01:36;0.43;;;0.30;;
52734;SDS011;38631;47.572;10.704;2023-05-10T10:04:03;1.13;;;0.65;;
52734;SDS011;38631;47.572;10.704;2023-05-10T10:06:34;0.90;;;0.47;;
52734;SDS011;38631;47.572;10.704;2023-05-10T10:09:01;0.30;;;0.20;;
52734;SDS011;38631;47.572;10.704;2023-05-10T10:11:27;0.20;;;0.20;;
52734;SDS011;38631;47.572;10.704;2023-05-10T10:13:53;0.52;;;0.30;;
52734;SDS011;38631;47.572;10.704;2023-05-10T10:16:18;0.35;;;0.32;;
52734;SDS011;38631;47.572;10.704;2023-05-10T10:18:45;0.65;;;0.20;;
52734;SDS011;38631;47.572;10.704;2023-05-10T10:21:12;0.63;;;0.43;;
52734;SDS011;38631;47.572;10.704;2023-05-10T10:23:38;0.40;;;0.32;;
52734;SDS011;38631;47.572;10.704;2023-05-10T10:26:04;0.57;;;0.38;;
52734;SDS011;38631;47.572;10.704;2023-05-10T10:28:42;0.95;;;0.40;;
52734;SDS011;38631;47.572;10.704;2023-05-10T10:45:33;1.30;;;0.20;;
52734;SDS011;38631;47.572;10.704;2023-05-10T10:50:46;0.45;;;0.20;;
52734;SDS011;38631;47.572;10.704;2023-05-10T10:53:12;0.47;;;0.40;;
52734;SDS011;38631;47.572;10.704;2023-05-10T10:55:47;0.10;;;0.10;;
52734;SDS011;38631;47.572;10.704;2023-05-10T10:58:31;0.30;;;0.15;;
52734;SDS011;38631;47.572;10.704;2023-05-10T11:01:11;1.65;;;0.40;;
52734;SDS011;38631;47.572;10.704;2023-05-10T11:03:38;0.30;;;0.20;;
52734;SDS011;38631;47.572;10.704;2023-05-10T11:06:04;0.38;;;0.20;;
52734;SDS011;38631;47.572;10.704;2023-05-10T11:08:31;0.50;;;0.30;;
52734;SDS011;38631;47.572;10.704;2023-05-10T11:13:44;0.63;;;0.30;;
52734;SDS011;38631;47.572;10.704;2023-05-10T11:16:23;0.40;;;0.30;;
52734;SDS011;38631;47.572;10.704;2023-05-10T11:18:53;0.50;;;0.40;;
52734;SDS011;38631;47.572;10.704;2023-05-10T11:21:29;0.47;;;0.20;;
52734;SDS011;38631;47.572;10.704;2023-05-10T11:23:56;0.30;;;0.20;;
52734;SDS011;38631;47.572;10.704;2023-05-10T11:26:23;0.50;;;0.30;;
52734;SDS011;38631;47.572;10.704;2023-05-10T11:29:02;0.25;;;0.22;;
52734;SDS011;38631;47.572;10.704;2023-05-10T11:31:29;0.28;;;0.17;;
52734;SDS011;38631;47.572;10.704;2023-05-10T11:34:05;0.60;;;0.10;;
52734;SDS011;38631;47.572;10.704;2023-05-10T11:36:35;0.60;;;0.20;;
52734;SDS011;38631;47.572;10.704;2023-05-10T11:41:34;0.30;;;0.10;;
52734;SDS011;38631;47.572;10.704;2023-05-10T11:44:00;0.25;;;0.13;;
52734;SDS011;38631;47.572;10.704;2023-05-10T11:46:28;0.20;;;0.20;;
52734;SDS011;38631;47.572;10.704;2023-05-10T11:48:55;0.30;;;0.10;;
52734;SDS011;38631;47.572;10.704;2023-05-10T11:51:26;0.95;;;0.40;;
52734;SDS011;38631;47.572;10.704;2023-05-10T11:54:00;0.45;;;0.20;;
52734;SDS011;38631;47.572;10.704;2023-05-10T11:56:25;0.30;;;0.30;;
52734;SDS011;38631;47.572;10.704;2023-05-10T11:59:01;0.60;;;0.20;;
52734;SDS011;38631;47.572;10.704;2023-05-10T12:01:30;0.50;;;0.17;;
52734;SDS011;38631;47.572;10.704;2023-05-10T12:04:00;0.38;;;0.20;;
52734;SDS011;38631;47.572;10.704;2023-05-10T12:06:37;0.60;;;0.20;;
52734;SDS011;38631;47.572;10.704;2023-05-10T12:09:06;0.30;;;0.20;;
52734;SDS011;38631;47.572;10.704;2023-05-10T12:11:36;0.35;;;0.30;;
52734;SDS011;38631;47.572;10.704;2023-05-10T12:14:07;0.38;;;0.20;;
52734;SDS011;38631;47.572;10.704;2023-05-10T12:16:33;0.57;;;0.40;;
52734;SDS011;38631;47.572;10.704;2023-05-10T12:18:59;0.20;;;0.10;;
52734;SDS011;38631;47.572;10.704;2023-05-10T12:21:29;0.60;;;0.30;;
52734;SDS011;38631;47.572;10.704;2023-05-10T12:24:01;2.25;;;0.77;;
52734;SDS011;38631;47.572;10.704;2023-05-10T12:26:28;1.48;;;0.30;;
52734;SDS011;38631;47.572;10.704;2023-05-10T12:29:01;0.45;;;0.30;;
52734;SDS011;38631;47.572;10.704;2023-05-10T12:31:51;0.40;;;0.22;;
52734;SDS011;38631;47.572;10.704;2023-05-10T12:34:25;0.45;;;0.40;;
52734;SDS011;38631;47.572;10.704;2023-05-10T12:36:58;0.63;;;0.40;;
52734;SDS011;38631;47.572;10.704;2023-05-10T12:39:24;0.68;;;0.30;;
52734;SDS011;38631;47.572;10.704;2023-05-10T12:41:51;0.68;;;0.20;;
52734;SDS011;38631;47.572;10.704;2023-05-10T12:44:20;0.40;;;0.30;;
52734;SDS011;38631;47.572;10.704;2023-05-10T12:46:46;0.60;;;0.43;;
52734;SDS011;38631;47.572;10.704;2023-05-10T12:49:12;0.93;;;0.30;;
52734;SDS011;38631;47.572;10.704;2023-05-10T12:51:37;0.90;;;0.60;;
52734;SDS011;38631;47.572;10.704;2023-05-10T12:54:05;0.30;;;0.30;;
52734;SDS011;38631;47.572;10.704;2023-05-10T12:56:30;2.85;;;1.42;;
52734;SDS011;38631;47.572;10.704;2023-05-10T12:58:56;2.25;;;0.90;;
52734;SDS011;38631;47.572;10.704;2023-05-10T13:01:22;1.50;;;0.60;;
52734;SDS011;38631;47.572;10.704;2023-05-10T13:03:47;0.70;;;0.40;;
52734;SDS011;38631;47.572;10.704;2023-05-10T13:06:17;0.52;;;0.30;;
52734;SDS011;38631;47.572;10.704;2023-05-10T13:08:42;1.60;;;0.50;;
52734;SDS011;38631;47.572;10.704;2023-05-10T13:11:09;0.75;;;0.63;;
52734;SDS011;38631;47.572;10.704;2023-05-10T13:13:34;3.10;;;0.50;;
52734;SDS011;38631;47.572;10.704;2023-05-10T13:16:00;1.65;;;0.38;;
52734;SDS011;38631;47.572;10.704;2023-05-10T13:18:25;0.60;;;0.35;;
52734;SDS011;38631;47.572;10.704;2023-05-10T13:20:51;1.23;;;0.65;;
52734;SDS011;38631;47.572;10.704;2023-05-10T13:23:17;0.90;;;0.52;;
52734;SDS011;38631;47.572;10.704;2023-05-10T13:25:42;2.20;;;0.50;;
52734;SDS011;38631;47.572;10.704;2023-05-10T13:28:10;1.42;;;0.45;;
52734;SDS011;38631;47.572;10.704;2023-05-10T13:30:36;1.98;;;0.50;;
52734;SDS011;38631;47.572;10.704;2023-05-10T13:33:01;2.58;;;0.60;;
52734;SDS011;38631;47.572;10.704;2023-05-10T13:35:27;0.88;;;0.50;;
52734;SDS011;38631;47.572;10.704;2023-05-10T13:37:52;0.70;;;0.40;;
52734;SDS011;38631;47.572;10.704;2023-05-10T13:40:20;0.55;;;0.40;;
52734;SDS011;38631;47.572;10.704;2023-05-10T13:42:45;0.73;;;0.40;;
52734;SDS011;38631;47.572;10.704;2023-05-10T13:45:11;1.15;;;0.50;;
52734;SDS011;38631;47.572;10.704;2023-05-10T13:47:38;1.58;;;0.73;;
52734;SDS011;38631;47.572;10.704;2023-05-10T13:50:03;2.08;;;0.50;;
52734;SDS011;38631;47.572;10.704;2023-05-10T13:52:29;0.60;;;0.40;;
52734;SDS011;38631;47.572;10.704;2023-05-10T13:54:54;1.88;;;0.60;;
52734;SDS011;38631;47.572;10.704;2023-05-10T13:57:20;0.50;;;0.40;;
52734;SDS011;38631;47.572;10.704;2023-05-10T13:59:45;1.40;;;0.60;;
52734;SDS011;38631;47.572;10.704;2023-05-10T14:02:13;0.60;;;0.25;;
52734;SDS011;38631;47.572;10.704;2023-05-10T14:04:38;0.70;;;0.50;;
52734;SDS011;38631;47.572;10.704;2023-05-10T14:07:04;3.03;;;0.50;;
52734;SDS011;38631;47.572;10.704;2023-05-10T14:09:29;0.90;;;0.60;;
52734;SDS011;38631;47.572;10.704;2023-05-10T14:11:55;0.93;;;0.45;;
52734;SDS011;38631;47.572;10.704;2023-05-10T14:14:20;1.20;;;0.40;;
52734;SDS011;38631;47.572;10.704;2023-05-10T14:16:46;1.55;;;0.77;;
52734;SDS011;38631;47.572;10.704;2023-05-10T14:19:11;1.02;;;0.47;;
52734;SDS011;38631;47.572;10.704;2023-05-10T14:21:38;1.48;;;0.85;;
52734;SDS011;38631;47.572;10.704;2023-05-10T14:24:03;1.88;;;0.85;;
52734;SDS011;38631;47.572;10.704;2023-05-10T14:26:29;1.15;;;0.60;;
52734;SDS011;38631;47.572;10.704;2023-05-10T14:28:56;3.75;;;1.67;;
52734;SDS011;38631;47.572;10.704;2023-05-10T14:31:21;1.52;;;0.65;;
52734;SDS011;38631;47.572;10.704;2023-05-10T14:33:50;1.95;;;1.00;;
52734;SDS011;38631;47.572;10.704;2023-05-10T14:36:15;0.95;;;0.52;;
52734;SDS011;38631;47.572;10.704;2023-05-10T14:38:41;1.30;;;0.60;;
52734;SDS011;38631;47.572;10.704;2023-05-10T14:41:06;0.28;;;0.20;;
52734;SDS011;38631;47.572;10.704;2023-05-10T14:43:32;0.40;;;0.30;;
52734;SDS011;38631;47.572;10.704;2023-05-10T14:45:57;0.40;;;0.20;;
52734;SDS011;38631;47.572;10.704;2023-05-10T14:48:23;1.27;;;0.30;;
52734;SDS011;38631;47.572;10.704;2023-05-10T14:50:48;0.22;;;0.20;;
52734;SDS011;38631;47.572;10.704;2023-05-10T14:53:15;0.43;;;0.30;;
52734;SDS011;38631;47.572;10.704;2023-05-10T14:55:41;0.20;;;0.20;;
52734;SDS011;38631;47.572;10.704;2023-05-10T14:58:06;0.55;;;0.30;;
52734;SDS011;38631;47.572;10.704;2023-05-10T15:00:34;1.30;;;0.60;;
52734;SDS011;38631;47.572;10.704;2023-05-10T15:03:00;0.52;;;0.40;;
52734;SDS011;38631;47.572;10.704;2023-05-10T15:05:26;0.52;;;0.28;;
52734;SDS011;38631;47.572;10.704;2023-05-10T15:07:51;0.57;;;0.30;;
52734;SDS011;38631;47.572;10.704;2023-05-10T15:10:18;0.47;;;0.10;;
52734;SDS011;38631;47.572;10.704;2023-05-10T15:12:43;0.88;;;0.40;;